createdAt,value
2019-02-14T00:00:52.091Z,101669.56
2019-02-14T00:03:57.253Z,101664.47
2019-02-14T00:07:02.409Z,101659.66
2019-02-14T00:10:07.735Z,101659.66
2019-02-14T00:13:12.882Z,101657.07
2019-02-14T00:16:18.013Z,101666.73
2019-02-14T00:19:23.174Z,101667.63
2019-02-14T00:22:28.331Z,101667.36
2019-02-14T00:25:33.481Z,101673.59
2019-02-14T00:28:38.956Z,101676.35
2019-02-14T00:31:44.178Z,101670.35
2019-02-14T00:34:49.329Z,101672.08
2019-02-14T00:37:54.518Z,101678.27
2019-02-14T00:40:59.617Z,101677.59
2019-02-14T00:44:04.788Z,101675.38
2019-02-14T00:47:09.930Z,101676.66
2019-02-14T00:50:15.061Z,101672.89
2019-02-14T00:53:20.215Z,101672.39
2019-02-14T00:56:26.498Z,101667.66
2019-02-14T00:59:32.728Z,101673.53
2019-02-14T01:02:37.863Z,101665.61
2019-02-14T01:05:42.996Z,101667.95
2019-02-14T01:08:48.176Z,101670.28
2019-02-14T01:11:53.337Z,101670.53
2019-02-14T01:14:58.504Z,101667.64
2019-02-14T01:18:03.652Z,101666.80
2019-02-14T01:21:08.778Z,101669.02
2019-02-14T01:24:13.894Z,101671.59
2019-02-14T01:27:19.043Z,101674.91
2019-02-14T01:30:24.154Z,101667.98
2019-02-14T01:33:29.270Z,101672.27
2019-02-14T01:36:34.563Z,101677.25
2019-02-14T01:39:39.708Z,101674.86
2019-02-14T01:42:44.958Z,101676.83
2019-02-14T01:45:50.131Z,101674.42
2019-02-14T01:48:55.338Z,101669.20
2019-02-14T01:52:01.528Z,101673.66
2019-02-14T01:55:06.724Z,101671.07
2019-02-14T01:58:11.907Z,101678.50
2019-02-14T02:01:17.063Z,101677.52
2019-02-14T02:04:22.214Z,101673.87
2019-02-14T02:07:27.325Z,101678.30
2019-02-14T02:10:32.508Z,101682.70
2019-02-14T02:13:37.591Z,101686.75
2019-02-14T02:16:42.726Z,101692.26
2019-02-14T02:19:47.896Z,101692.14
2019-02-14T02:22:53.089Z,101705.96
2019-02-14T02:25:58.169Z,101701.84
2019-02-14T02:29:03.342Z,101706.55
2019-02-14T02:32:08.518Z,101704.31
2019-02-14T02:35:13.646Z,101706.43
2019-02-14T02:38:19.910Z,101691.98
2019-02-14T02:41:25.028Z,101680.77
2019-02-14T02:44:30.304Z,101689.10
2019-02-14T02:47:35.445Z,101693.81
2019-02-14T02:50:40.753Z,101693.94
2019-02-14T02:53:45.934Z,101683.92
2019-02-14T02:56:51.128Z,101683.48
2019-02-14T02:59:56.254Z,101682.23
2019-02-14T03:03:01.359Z,101684.43
2019-02-14T03:06:10.561Z,101693.98
2019-02-14T03:09:13.351Z,101699.59
2019-02-14T03:12:18.604Z,101696.58
2019-02-14T03:15:23.713Z,101695.80
2019-02-14T03:18:28.864Z,101696.67
2019-02-14T03:21:34.008Z,101687.77
2019-02-14T03:24:39.180Z,101690.08
2019-02-14T03:27:44.396Z,101701.95
2019-02-14T03:30:49.579Z,101703.43
2019-02-14T03:33:54.727Z,101688.25
2019-02-14T03:36:59.886Z,101694.24
2019-02-14T03:40:05.679Z,101697.42
2019-02-14T03:43:10.804Z,101701.49
2019-02-14T03:46:15.956Z,101705.38
2019-02-14T03:49:21.071Z,101710.89
2019-02-14T03:52:26.235Z,101709.95
2019-02-14T03:55:31.318Z,101724.06
2019-02-14T03:58:36.515Z,101730.17
2019-02-14T04:01:41.587Z,101730.27
2019-02-14T04:04:46.735Z,101736.61
2019-02-14T04:07:51.783Z,101732.41
2019-02-14T04:10:56.957Z,101734.34
2019-02-14T04:14:02.164Z,101728.86
2019-02-14T04:17:07.254Z,101728.73
2019-02-14T04:20:12.707Z,101717.84
2019-02-14T04:23:17.885Z,101713.70
2019-02-14T04:26:22.958Z,101724.40
2019-02-14T04:29:28.177Z,101715.53
2019-02-14T04:32:33.247Z,101712.12
2019-02-14T04:35:38.377Z,101718.17
2019-02-14T04:38:43.523Z,101710.73
2019-02-14T04:41:48.681Z,101712.15
2019-02-14T04:44:53.877Z,101711.10
2019-02-14T04:47:58.966Z,101719.38
2019-02-14T04:51:04.267Z,101726.16
2019-02-14T04:54:09.417Z,101718.85
2019-02-14T04:57:14.596Z,101726.02
2019-02-14T05:00:19.728Z,101721.81
2019-02-14T05:03:24.985Z,101714.77
2019-02-14T05:06:31.201Z,101716.09
2019-02-14T05:09:36.391Z,101709.83
2019-02-14T05:12:41.538Z,101716.02
2019-02-14T05:15:46.686Z,101715.02
2019-02-14T05:18:51.833Z,101727.75
2019-02-14T05:21:56.982Z,101723.78
2019-02-14T05:25:02.102Z,101723.63
2019-02-14T05:28:07.215Z,101726.02
2019-02-14T05:31:12.360Z,101732.94
2019-02-14T05:34:17.518Z,101729.73
2019-02-14T05:37:22.720Z,101734.72
2019-02-14T05:40:27.933Z,101721.22
2019-02-14T05:43:33.037Z,101717.02
2019-02-14T05:46:38.177Z,101719.59
2019-02-14T05:49:43.292Z,101727.09
2019-02-14T05:52:48.436Z,101715.16
2019-02-14T05:55:53.632Z,101714.02
2019-02-14T05:58:58.814Z,101722.14
2019-02-14T06:02:04.013Z,101724.31
2019-02-14T06:05:09.588Z,101726.56
2019-02-14T06:08:14.744Z,101721.20
2019-02-14T06:11:19.843Z,101735.47
2019-02-14T06:14:24.993Z,101732.90
2019-02-14T06:17:30.173Z,101749.50
2019-02-14T06:20:35.344Z,101751.34
2019-02-14T06:23:40.487Z,101761.83
2019-02-14T06:26:45.692Z,101754.92
2019-02-14T06:29:50.861Z,101761.45
2019-02-14T06:32:57.082Z,101770.11
2019-02-14T06:36:02.211Z,101767.09
2019-02-14T06:39:07.554Z,101771.75
2019-02-14T06:42:12.721Z,101772.27
2019-02-14T06:45:17.867Z,101778.92
2019-02-14T06:48:23.119Z,101783.50
2019-02-14T06:51:28.262Z,101791.03
2019-02-14T06:54:33.438Z,101796.53
2019-02-14T06:57:38.599Z,101800.26
2019-02-14T07:00:43.803Z,101800.51
2019-02-14T07:03:48.931Z,101799.08
2019-02-14T07:06:54.080Z,101798.38
2019-02-14T07:09:59.178Z,101799.25
2019-02-14T07:13:04.377Z,101808.53
2019-02-14T07:16:09.728Z,101816.61
2019-02-14T07:19:14.873Z,101812.34
2019-02-14T07:22:20.103Z,101813.80
2019-02-14T07:25:25.313Z,101808.97
2019-02-14T07:28:30.511Z,101818.55
2019-02-14T07:31:35.677Z,101822.59
2019-02-14T07:34:40.809Z,101834.06
2019-02-14T07:37:45.972Z,101835.83
2019-02-14T07:40:51.132Z,101849.01
2019-02-14T07:43:56.290Z,101857.06
2019-02-14T07:47:01.503Z,101856.84
2019-02-14T07:50:07.217Z,101858.45
2019-02-14T07:53:12.371Z,101859.61
2019-02-14T07:56:17.579Z,101870.20
2019-02-14T07:59:22.871Z,101854.83
2019-02-14T08:02:28.126Z,101848.17
2019-02-14T08:05:33.265Z,101847.72
2019-02-14T08:08:38.434Z,101835.56
2019-02-14T08:11:43.659Z,101835.55
2019-02-14T08:14:48.864Z,101835.86
2019-02-14T08:17:54.046Z,101838.41
2019-02-14T08:20:59.222Z,101837.56
2019-02-14T08:24:04.421Z,101840.25
2019-02-14T08:27:09.514Z,101850.58
2019-02-14T08:30:15.854Z,101850.25
2019-02-14T08:33:21.003Z,101842.00
2019-02-14T08:36:26.185Z,101829.52
2019-02-14T08:39:31.459Z,101829.05
2019-02-14T08:42:36.600Z,101832.94
2019-02-14T08:45:41.763Z,101833.75
2019-02-14T08:48:46.918Z,101840.04
2019-02-14T08:51:52.308Z,101848.92
2019-02-14T08:54:57.531Z,101847.75
2019-02-14T08:58:02.656Z,101855.34
2019-02-14T09:01:08.862Z,101859.94
2019-02-14T09:04:13.986Z,101850.50
2019-02-14T09:07:19.184Z,101845.11
2019-02-14T09:10:25.372Z,101833.70
2019-02-14T09:13:30.492Z,101844.47
2019-02-14T09:16:35.608Z,101838.78
2019-02-14T09:19:41.867Z,101838.73
2019-02-14T09:22:47.126Z,101836.81
2019-02-14T09:25:52.309Z,101847.75
2019-02-14T09:28:57.563Z,101840.65
2019-02-14T09:32:02.750Z,101853.67
2019-02-14T09:35:08.387Z,101851.45
2019-02-14T09:38:13.610Z,101848.94
2019-02-14T09:41:18.740Z,101858.88
2019-02-14T09:44:23.981Z,101851.64
2019-02-14T09:47:29.122Z,101848.86
2019-02-14T09:50:34.268Z,101854.89
2019-02-14T09:53:39.384Z,101849.87
2019-02-14T09:56:44.559Z,101832.41
2019-02-14T09:59:49.753Z,101833.37
2019-02-14T10:02:54.913Z,101827.19
2019-02-14T10:06:00.061Z,101822.09
2019-02-14T10:09:07.827Z,101819.03
2019-02-14T10:12:13.026Z,101819.32
2019-02-14T10:15:18.186Z,101815.94
2019-02-14T10:18:23.448Z,101815.92
2019-02-14T10:21:28.635Z,101813.31
2019-02-14T10:24:33.803Z,101808.80
2019-02-14T10:27:39.006Z,101811.56
2019-02-14T10:30:44.084Z,101796.93
2019-02-14T10:33:49.270Z,101802.53
2019-02-14T10:36:54.380Z,101817.02
2019-02-14T10:39:59.615Z,101819.34
2019-02-14T10:43:04.784Z,101826.34
2019-02-14T10:46:09.984Z,101827.19
2019-02-14T10:49:15.141Z,101815.42
2019-02-14T10:52:20.305Z,101814.83
2019-02-14T10:55:25.436Z,101828.85
2019-02-14T10:58:30.573Z,101827.67
2019-02-14T11:01:35.722Z,101813.84
2019-02-14T11:04:40.874Z,101807.66
2019-02-14T11:07:46.137Z,101809.00
2019-02-14T11:10:51.294Z,101804.16
2019-02-14T11:13:56.454Z,101794.80
2019-02-14T11:17:01.723Z,101801.94
2019-02-14T11:20:07.662Z,101804.15
2019-02-14T11:23:12.828Z,101804.84
2019-02-14T11:26:17.951Z,101800.61
2019-02-14T11:29:23.075Z,101795.95
2019-02-14T11:32:29.154Z,101786.13
2019-02-14T11:35:34.383Z,101777.62
2019-02-14T11:38:40.853Z,101784.16
2019-02-14T11:41:46.136Z,101785.63
2019-02-14T11:44:51.325Z,101776.53
2019-02-14T11:47:56.460Z,101784.02
2019-02-14T11:51:01.636Z,101776.02
2019-02-14T11:54:06.770Z,101780.22
2019-02-14T11:57:12.043Z,101778.88
2019-02-14T12:00:20.998Z,101774.05
2019-02-14T12:03:26.182Z,101760.53
2019-02-14T12:06:31.355Z,101741.19
2019-02-14T12:09:36.459Z,101737.72
2019-02-14T12:12:41.558Z,101751.17
2019-02-14T12:15:46.726Z,101754.56
2019-02-14T12:18:51.917Z,101737.45
2019-02-14T12:21:57.060Z,101733.28
2019-02-14T12:25:02.246Z,101737.80
2019-02-14T12:28:07.511Z,101731.82
2019-02-14T12:31:12.641Z,101734.50
2019-02-14T12:34:17.743Z,101730.91
2019-02-14T12:37:22.885Z,101719.75
2019-02-14T12:40:27.979Z,101711.81
2019-02-14T12:43:33.253Z,101703.34
2019-02-14T12:46:38.424Z,101694.84
2019-02-14T12:49:43.553Z,101690.05
2019-02-14T12:52:48.707Z,101676.30
2019-02-14T12:55:53.923Z,101663.77
2019-02-14T12:58:59.105Z,101660.97
2019-02-14T13:02:07.462Z,101651.83
2019-02-14T13:05:12.746Z,101648.67
2019-02-14T13:08:18.063Z,101652.61
2019-02-14T13:11:23.284Z,101647.64
2019-02-14T13:14:28.513Z,101641.95
2019-02-14T13:17:33.788Z,101646.38
2019-02-14T13:20:38.983Z,101648.78
2019-02-14T13:23:44.160Z,101641.36
2019-02-14T13:26:49.340Z,101632.69
2019-02-14T13:29:54.520Z,101632.85
2019-02-14T13:32:59.648Z,101632.80
2019-02-14T13:36:06.088Z,101624.77
2019-02-14T13:39:11.767Z,101623.00
2019-02-14T13:42:16.977Z,101617.75
2019-02-14T13:45:23.371Z,101618.24
2019-02-14T13:48:29.849Z,101618.77
2019-02-14T13:51:35.128Z,101612.48
2019-02-14T13:54:40.282Z,101610.07
2019-02-14T13:57:46.666Z,101604.30
2019-02-14T14:00:52.029Z,101608.12
2019-02-14T14:03:57.201Z,101610.72
2019-02-14T14:07:02.343Z,101598.22
2019-02-14T14:10:08.223Z,101591.21
2019-02-14T14:13:13.412Z,101594.78
2019-02-14T14:16:18.793Z,101591.98
2019-02-14T14:19:24.000Z,101591.45
2019-02-14T14:22:29.170Z,101582.14
2019-02-14T14:25:34.296Z,101584.22
2019-02-14T14:28:39.836Z,101586.55
2019-02-14T14:31:45.099Z,101595.57
2019-02-14T14:34:50.415Z,101593.02
2019-02-14T14:37:55.631Z,101592.05
2019-02-14T14:41:00.794Z,101597.67
2019-02-14T14:44:15.177Z,101577.23
2019-02-14T14:47:22.427Z,101573.93
2019-02-14T14:50:27.604Z,101573.38
2019-02-14T14:53:32.844Z,101575.27
2019-02-14T14:56:38.009Z,101577.57
2019-02-14T14:59:43.124Z,101573.22
2019-02-14T15:02:48.351Z,101579.64
2019-02-14T15:05:53.553Z,101583.39
2019-02-14T15:08:58.739Z,101565.09
2019-02-14T15:12:03.795Z,101574.34
2019-02-14T15:15:08.998Z,101575.73
2019-02-14T15:18:14.277Z,101569.77
2019-02-14T15:21:19.488Z,101560.70
2019-02-14T15:24:24.679Z,101556.38
2019-02-14T15:27:29.823Z,101562.97
2019-02-14T15:30:35.007Z,101567.13
2019-02-14T15:33:40.176Z,101572.03
2019-02-14T15:36:46.889Z,101576.55
2019-02-14T15:39:52.490Z,101577.23
2019-02-14T15:42:57.653Z,101584.66
2019-02-14T15:46:02.812Z,101589.13
2019-02-14T15:49:07.983Z,101584.17
2019-02-14T15:52:13.159Z,101587.07
2019-02-14T15:55:19.440Z,101584.48
2019-02-14T15:58:25.329Z,101580.14
2019-02-14T16:01:30.528Z,101576.97
2019-02-14T16:04:36.820Z,101585.27
2019-02-14T16:07:42.124Z,101592.83
2019-02-14T16:10:49.160Z,101595.80
2019-02-14T16:13:54.985Z,101600.09
2019-02-14T16:17:00.958Z,101594.62
2019-02-14T16:20:06.476Z,101592.95
2019-02-14T16:23:11.661Z,101594.45
2019-02-14T16:26:17.215Z,101585.13
2019-02-14T16:29:24.569Z,101587.09
2019-02-14T16:32:29.388Z,101592.64
2019-02-14T16:35:34.559Z,101598.81
2019-02-14T16:38:39.745Z,101596.89
2019-02-14T16:41:44.887Z,101590.23
2019-02-14T16:44:50.127Z,101594.38
2019-02-14T16:47:55.425Z,101595.73
2019-02-14T16:51:00.612Z,101599.02
2019-02-14T16:54:05.816Z,101612.20
2019-02-14T16:57:11.179Z,101620.05
2019-02-14T17:00:16.532Z,101629.13
2019-02-14T17:03:21.786Z,101623.56
2019-02-14T17:06:27.032Z,101614.73
2019-02-14T17:09:32.253Z,101625.88
2019-02-14T17:12:37.521Z,101636.03
2019-02-14T17:15:42.697Z,101649.93
2019-02-14T17:18:47.928Z,101653.66
2019-02-14T17:21:53.968Z,101656.60
2019-02-14T17:24:59.752Z,101658.73
2019-02-14T17:28:05.052Z,101664.89
2019-02-14T17:31:10.217Z,101668.54
2019-02-14T17:34:15.609Z,101672.83
2019-02-14T17:37:20.750Z,101673.54
2019-02-14T17:40:25.892Z,101677.50
2019-02-14T17:43:31.167Z,101674.45
2019-02-14T17:46:36.392Z,101683.59
2019-02-14T17:49:41.722Z,101680.61
2019-02-14T17:52:47.016Z,101677.43
2019-02-14T17:55:52.282Z,101679.53
2019-02-14T17:58:57.495Z,101683.39
2019-02-14T18:02:02.666Z,101677.11
2019-02-14T18:05:08.595Z,101676.98
2019-02-14T18:08:13.740Z,101682.38
2019-02-14T18:11:18.992Z,101682.90
2019-02-14T18:14:24.100Z,101675.83
2019-02-14T18:17:29.294Z,101661.22
2019-02-14T18:20:34.533Z,101672.76
2019-02-14T18:23:39.745Z,101668.97
2019-02-14T18:26:44.905Z,101677.63
2019-02-14T18:29:50.128Z,101669.89
2019-02-14T18:32:55.263Z,101669.31
2019-02-14T18:36:00.564Z,101665.52
2019-02-14T18:39:07.837Z,101648.17
2019-02-14T18:42:13.177Z,101636.42
2019-02-14T18:45:18.321Z,101644.28
2019-02-14T18:48:24.661Z,101653.91
2019-02-14T18:51:29.781Z,101652.86
2019-02-14T18:54:34.953Z,101658.27
2019-02-14T18:57:40.167Z,101657.70
2019-02-14T19:00:45.443Z,101662.97
2019-02-14T19:03:50.645Z,101645.47
2019-02-14T19:06:55.827Z,101649.45
2019-02-14T19:10:01.097Z,101643.39
2019-02-14T19:13:06.334Z,101646.13
2019-02-14T19:16:11.769Z,101646.14
2019-02-14T19:19:16.977Z,101646.14
2019-02-14T19:22:22.233Z,101643.20
2019-02-14T19:25:29.637Z,101652.50
2019-02-14T19:28:34.365Z,101655.75
2019-02-14T19:31:39.564Z,101661.22
2019-02-14T19:34:44.759Z,101654.98
2019-02-14T19:37:50.039Z,101652.75
2019-02-14T19:40:55.276Z,101657.69
2019-02-14T19:44:00.399Z,101656.72
2019-02-14T19:47:05.553Z,101653.02
2019-02-14T19:50:10.783Z,101651.98
2019-02-14T19:53:15.974Z,101653.72
2019-02-14T19:56:21.137Z,101647.09
2019-02-14T19:59:26.424Z,101651.47
2019-02-14T20:02:31.612Z,101651.66
2019-02-14T20:05:36.871Z,101651.86
2019-02-14T20:08:42.037Z,101648.84
2019-02-14T20:11:49.718Z,101644.89
2019-02-14T20:14:54.950Z,101642.89
2019-02-14T20:18:00.164Z,101639.58
2019-02-14T20:21:05.337Z,101644.70
2019-02-14T20:24:10.601Z,101644.04
2019-02-14T20:27:15.792Z,101639.39
2019-02-14T20:30:22.077Z,101646.95
2019-02-14T20:33:27.280Z,101651.13
2019-02-14T20:36:32.521Z,101646.39
2019-02-14T20:39:37.789Z,101647.31
2019-02-14T20:42:43.017Z,101640.70
2019-02-14T20:45:48.225Z,101648.28
2019-02-14T20:48:53.470Z,101648.27
2019-02-14T20:51:58.739Z,101648.47
2019-02-14T20:55:03.979Z,101640.14
2019-02-14T20:58:10.944Z,101643.72
2019-02-14T21:01:16.161Z,101641.83
2019-02-14T21:04:22.140Z,101647.89
2019-02-14T21:07:27.303Z,101644.89
2019-02-14T21:10:32.526Z,101648.85
2019-02-14T21:13:37.799Z,101651.30
2019-02-14T21:16:42.940Z,101644.14
2019-02-14T21:19:48.239Z,101650.82
2019-02-14T21:22:53.407Z,101654.91
2019-02-14T21:25:58.673Z,101650.34
2019-02-14T21:29:03.857Z,101653.39
2019-02-14T21:32:09.001Z,101656.97
2019-02-14T21:35:14.385Z,101657.44
2019-02-14T21:38:20.591Z,101659.25
2019-02-14T21:41:25.789Z,101660.34
2019-02-14T21:44:31.059Z,101652.99
2019-02-14T21:47:36.268Z,101653.92
2019-02-14T21:50:41.567Z,101652.23
2019-02-14T21:53:46.743Z,101655.80
2019-02-14T21:56:51.869Z,101658.19
2019-02-14T21:59:56.958Z,101659.22
2019-02-14T22:03:02.237Z,101662.20
2019-02-14T22:06:07.576Z,101662.59
2019-02-14T22:09:12.872Z,101668.87
2019-02-14T22:12:37.305Z,101663.73
2019-02-14T22:15:24.967Z,101668.41
2019-02-14T22:18:30.114Z,101667.73
2019-02-14T22:21:35.380Z,101666.41
2019-02-14T22:24:42.109Z,101670.06
2019-02-14T22:27:47.302Z,101678.26
2019-02-14T22:30:52.517Z,101671.21
2019-02-14T22:33:57.676Z,101668.20
2019-02-14T22:37:02.798Z,101673.89
2019-02-14T22:40:08.111Z,101676.68
2019-02-14T22:43:13.365Z,101678.50
2019-02-14T22:46:18.546Z,101672.33
2019-02-14T22:49:23.749Z,101674.85
2019-02-14T22:52:28.863Z,101681.56
2019-02-14T22:55:34.020Z,101677.13
2019-02-14T22:58:39.182Z,101682.19
2019-02-14T23:01:46.643Z,101679.96
2019-02-14T23:04:51.868Z,101676.90
2019-02-14T23:07:57.079Z,101674.98
2019-02-14T23:11:02.276Z,101670.10
2019-02-14T23:14:07.455Z,101668.19
2019-02-14T23:17:12.656Z,101667.66
2019-02-14T23:20:17.813Z,101667.46
2019-02-14T23:23:23.001Z,101667.28
2019-02-14T23:26:28.217Z,101659.86
2019-02-14T23:29:33.439Z,101663.67
2019-02-14T23:32:38.629Z,101661.52
2019-02-14T23:35:43.735Z,101661.76
2019-02-14T23:38:48.861Z,101656.90
2019-02-14T23:41:54.084Z,101659.84
2019-02-14T23:44:59.291Z,101662.23
2019-02-14T23:48:04.507Z,101662.41
2019-02-14T23:51:09.605Z,101656.40
2019-02-14T23:54:14.939Z,101659.88
2019-02-14T23:57:20.151Z,101665.17
